Time;durP1;ratioP1;P1;durP2;ratioP2;P2;SDS_P1;SDS_P2;PMS_P1;PMS_P2;Temp;Humidity;BMP_temperature;BMP_pressure;BME280_temperature;BME280_humidity;BME280_pressure;Samples;Min_cycle;Max_cycle;Signal;HPM_P1;HPM_P2
2022/01/23 00:02:10;;;;;;;20.27;9.80;;;7.00;99.90;;;;;;5107846;28;20468;-73
2022/01/23 00:04:38;;;;;;;18.33;10.40;;;7.10;99.90;;;;;;5108950;28;20197;-74
2022/01/23 00:07:09;;;;;;;17.58;10.55;;;7.10;99.90;;;;;;5118500;27;20198;-75
2022/01/23 00:09:36;;;;;;;15.07;12.10;;;7.10;99.90;;;;;;5108732;28;20276;-75
2022/01/23 00:12:07;;;;;;;20.83;11.25;;;7.10;99.90;;;;;;5109268;28;20230;-75
2022/01/23 00:17:20;;;;;;;17.75;10.00;;;7.10;99.90;;;;;;5107748;28;20350;-73
2022/01/23 00:19:49;;;;;;;16.52;8.73;;;7.10;99.90;;;;;;5108361;28;20273;-73
2022/01/23 00:22:19;;;;;;;24.27;9.93;;;7.10;99.90;;;;;;5108977;28;20300;-74
2022/01/23 00:30:22;;;;;;;14.82;8.82;;;7.00;99.90;;;;;;5107813;28;20227;-74
2022/01/23 00:32:49;;;;;;;13.38;9.43;;;6.90;99.90;;;;;;5090891;28;20269;-74
2022/01/23 00:35:17;;;;;;;18.20;9.80;;;6.80;99.90;;;;;;5105090;28;20243;-74
2022/01/23 00:37:46;;;;;;;13.77;8.30;;;6.80;99.90;;;;;;5107759;28;20400;-74
2022/01/23 00:40:13;;;;;;;10.60;7.43;;;6.80;99.90;;;;;;5107267;28;20416;-73
2022/01/23 00:42:40;;;;;;;14.07;8.70;;;6.70;99.90;;;;;;5108333;28;20214;-73
2022/01/23 00:45:26;;;;;;;23.48;9.88;;;6.70;99.90;;;;;;5108532;28;20177;-74
2022/01/23 00:47:55;;;;;;;15.73;9.13;;;6.70;99.90;;;;;;5109129;28;20186;-74
2022/01/23 00:50:22;;;;;;;12.98;10.38;;;6.70;99.90;;;;;;5108332;28;20313;-74
2022/01/23 00:52:51;;;;;;;15.52;9.80;;;6.60;99.90;;;;;;5108944;28;20262;-74
2022/01/23 00:55:18;;;;;;;14.10;8.82;;;6.70;99.90;;;;;;5109127;28;20216;-73
2022/01/23 00:57:45;;;;;;;15.18;8.50;;;6.70;99.90;;;;;;5100525;28;20209;-74
2022/01/23 01:00:13;;;;;;;13.48;8.70;;;6.70;99.90;;;;;;5108291;28;20278;-74
2022/01/23 01:02:40;;;;;;;14.30;7.97;;;6.70;99.90;;;;;;5108655;28;20232;-75
2022/01/23 01:05:08;;;;;;;11.20;7.18;;;6.80;99.90;;;;;;5108510;28;20184;-75
2022/01/23 01:07:35;;;;;;;13.10;7.85;;;6.80;99.90;;;;;;5108351;28;20389;-75
2022/01/23 01:10:09;;;;;;;16.50;7.97;;;6.80;99.90;;;;;;5108158;28;20182;-73
2022/01/23 01:12:40;;;;;;;13.20;7.72;;;6.80;99.90;;;;;;5079091;28;20209;-73
2022/01/23 01:31:54;;;;;;;12.20;8.23;;;6.70;99.90;;;;;;5107361;28;20250;-74
2022/01/23 01:34:27;;;;;;;12.98;7.32;;;6.80;99.90;;;;;;5107193;28;20263;-73
2022/01/23 01:36:56;;;;;;;15.38;7.88;;;6.70;99.90;;;;;;5107682;28;20189;-73
2022/01/23 01:39:25;;;;;;;10.13;5.68;;;6.80;99.90;;;;;;5107731;28;20276;-75
2022/01/23 01:41:54;;;;;;;12.07;7.53;;;6.90;99.90;;;;;;5106517;28;20298;-75
2022/01/23 01:44:22;;;;;;;16.00;8.25;;;6.90;99.90;;;;;;5114487;28;20427;-74
2022/01/23 01:46:50;;;;;;;11.07;6.25;;;6.90;99.90;;;;;;5107462;28;20185;-73
2022/01/23 01:49:26;;;;;;;9.90;6.35;;;6.90;99.90;;;;;;5107048;28;20355;-74
2022/01/23 01:51:54;;;;;;;11.85;6.30;;;6.90;99.90;;;;;;5099844;28;20356;-73
2022/01/23 01:54:23;;;;;;;9.35;6.00;;;6.90;99.90;;;;;;5107157;28;20242;-75
2022/01/23 01:56:53;;;;;;;9.30;5.25;;;6.90;99.90;;;;;;5107096;28;20238;-74
2022/01/23 01:59:45;;;;;;;10.15;4.75;;;6.90;99.90;;;;;;5107111;28;20246;-74
2022/01/23 02:10:32;;;;;;;10.85;5.80;;;6.90;99.90;;;;;;5105910;28;20230;-74
2022/01/23 02:15:58;;;;;;;8.77;5.00;;;6.80;99.90;;;;;;5105455;28;20434;-73
2022/01/23 02:22:23;;;;;;;10.52;4.70;;;6.80;99.90;;;;;;5106430;28;20305;-75
2022/01/23 02:51:43;;;;;;;9.30;4.82;;;6.70;99.90;;;;;;5105926;28;20261;-73
2022/01/23 02:54:30;;;;;;;5.30;3.85;;;6.80;99.90;;;;;;5084393;28;20200;-74
2022/01/23 02:57:03;;;;;;;5.28;4.50;;;6.90;99.90;;;;;;5106635;28;20196;-73
2022/01/23 02:59:32;;;;;;;13.32;3.95;;;6.90;99.90;;;;;;5106128;28;20237;-74
2022/01/23 03:02:09;;;;;;;9.55;4.45;;;6.90;99.90;;;;;;5106177;28;20255;-73
2022/01/23 03:04:40;;;;;;;5.40;4.43;;;6.80;99.90;;;;;;5106032;28;20239;-73
2022/01/23 03:07:30;;;;;;;8.52;4.60;;;6.80;99.90;;;;;;5106789;28;20259;-73
2022/01/23 03:10:02;;;;;;;13.02;5.80;;;6.90;99.90;;;;;;5105774;28;20197;-73
2022/01/23 03:15:20;;;;;;;6.15;4.25;;;6.70;99.90;;;;;;5080857;28;20216;-73
2022/01/23 03:29:06;;;;;;;10.68;5.15;;;6.60;99.90;;;;;;5106183;28;20190;-73
2022/01/23 03:31:43;;;;;;;9.65;6.35;;;6.60;99.90;;;;;;5105336;28;20227;-74
2022/01/23 03:34:10;;;;;;;8.88;5.40;;;6.70;99.90;;;;;;5088272;28;20270;-74
2022/01/23 03:36:38;;;;;;;10.55;4.57;;;6.70;99.90;;;;;;5106243;28;20241;-73
2022/01/23 03:39:08;;;;;;;10.70;4.60;;;6.70;99.90;;;;;;5106191;28;20349;-73
2022/01/23 03:41:37;;;;;;;8.13;4.05;;;6.70;99.90;;;;;;5107784;28;20235;-73
2022/01/23 03:44:06;;;;;;;5.28;4.40;;;6.70;99.90;;;;;;5102110;28;20227;-74
2022/01/23 03:46:49;;;;;;;11.60;4.43;;;6.70;99.90;;;;;;5106288;28;20200;-74
2022/01/23 03:49:34;;;;;;;5.22;4.18;;;6.70;99.90;;;;;;5106224;28;20213;-73
2022/01/23 03:52:02;;;;;;;10.27;5.25;;;6.80;99.90;;;;;;5106293;28;20289;-74
2022/01/23 03:54:30;;;;;;;5.97;4.05;;;6.80;99.90;;;;;;5106085;28;20186;-74
2022/01/23 03:57:00;;;;;;;5.93;4.00;;;6.80;99.90;;;;;;5105763;28;20245;-74
2022/01/23 03:59:27;;;;;;;5.28;4.18;;;6.80;99.90;;;;;;5106187;28;20199;-74
2022/01/23 04:01:54;;;;;;;9.02;4.55;;;6.80;99.90;;;;;;5105701;28;20316;-74
2022/01/23 04:07:10;;;;;;;9.52;4.82;;;6.80;99.90;;;;;;5100266;28;20205;-74
2022/01/23 04:09:38;;;;;;;12.43;5.68;;;6.90;99.90;;;;;;5105256;28;20193;-74
2022/01/23 04:12:10;;;;;;;10.18;4.80;;;6.90;99.90;;;;;;5103589;28;20253;-73
2022/01/23 04:14:43;;;;;;;7.75;4.30;;;6.90;99.90;;;;;;5109401;28;20189;-73
2022/01/23 04:20:08;;;;;;;19.02;4.50;;;7.00;99.90;;;;;;5108671;28;20185;-73
2022/01/23 04:33:44;;;;;;;11.05;5.65;;;6.90;99.90;;;;;;5108270;28;20235;-74
2022/01/23 05:01:00;;;;;;;12.25;7.65;;;7.10;99.90;;;;;;5108396;28;20216;-74
2022/01/23 05:06:12;;;;;;;12.15;8.60;;;7.00;99.90;;;;;;5109135;28;20185;-74
2022/01/23 05:08:39;;;;;;;11.80;8.18;;;7.00;99.90;;;;;;5109342;28;20227;-74
2022/01/23 05:11:11;;;;;;;13.18;8.82;;;7.00;99.90;;;;;;5108405;28;20227;-74
2022/01/23 05:13:38;;;;;;;16.23;10.88;;;7.00;99.90;;;;;;5108333;28;20232;-74
2022/01/23 05:16:06;;;;;;;14.15;8.82;;;7.00;99.90;;;;;;5108923;28;20306;-74
2022/01/23 05:18:35;;;;;;;14.52;9.63;;;7.00;99.90;;;;;;5108788;28;20193;-74
2022/01/23 05:21:13;;;;;;;15.95;9.82;;;7.10;99.90;;;;;;5108215;28;20229;-74
2022/01/23 05:23:40;;;;;;;12.23;8.73;;;7.10;99.90;;;;;;5090550;28;20244;-74
2022/01/23 05:26:07;;;;;;;27.48;11.35;;;7.10;99.90;;;;;;5108142;28;20421;-74
2022/01/23 05:28:33;;;;;;;20.70;10.30;;;7.10;99.90;;;;;;5108490;28;20217;-73
2022/01/23 05:31:00;;;;;;;16.42;11.05;;;7.00;99.90;;;;;;5107610;28;20214;-74
2022/01/23 05:33:29;;;;;;;17.15;10.80;;;7.00;99.90;;;;;;5108134;28;20209;-73
2022/01/23 05:35:56;;;;;;;13.68;8.93;;;7.00;99.90;;;;;;5110785;28;20200;-74
2022/01/23 05:38:24;;;;;;;20.50;9.05;;;7.10;99.90;;;;;;5108131;28;20193;-73
2022/01/23 05:40:56;;;;;;;16.15;10.45;;;7.00;99.90;;;;;;5107250;28;20275;-73
2022/01/23 05:43:25;;;;;;;23.60;9.93;;;7.10;99.90;;;;;;5108435;28;20197;-74
2022/01/23 05:45:53;;;;;;;15.57;9.75;;;7.10;99.90;;;;;;5109487;28;20217;-74
2022/01/23 05:48:20;;;;;;;15.85;10.15;;;7.10;99.90;;;;;;5108834;28;20232;-74
2022/01/23 05:50:49;;;;;;;14.07;10.57;;;7.10;99.90;;;;;;5107681;28;20172;-74
2022/01/23 05:53:16;;;;;;;14.88;8.57;;;7.20;99.90;;;;;;5108210;28;20193;-74
2022/01/23 05:55:43;;;;;;;16.52;10.05;;;7.10;99.90;;;;;;5107856;28;20220;-74
2022/01/23 05:58:12;;;;;;;17.48;9.95;;;7.10;99.90;;;;;;5107930;28;20219;-74
2022/01/23 06:00:39;;;;;;;18.08;10.55;;;7.10;99.90;;;;;;5107047;28;20202;-74
2022/01/23 06:03:06;;;;;;;16.80;10.80;;;7.00;99.90;;;;;;5108279;28;20200;-73
2022/01/23 06:05:33;;;;;;;15.38;10.07;;;7.00;99.90;;;;;;5107757;28;20400;-73
2022/01/23 06:08:02;;;;;;;26.45;11.13;;;7.00;99.90;;;;;;5107786;28;20188;-73
2022/01/23 06:10:35;;;;;;;18.50;10.93;;;7.00;99.90;;;;;;5107137;28;20220;-73
2022/01/23 06:13:03;;;;;;;16.20;10.85;;;7.00;99.90;;;;;;5089763;28;20212;-74
2022/01/23 06:15:30;;;;;;;21.65;10.68;;;7.00;99.90;;;;;;5107442;28;20177;-73
2022/01/23 06:17:57;;;;;;;13.63;10.75;;;7.00;99.90;;;;;;5107954;28;20201;-74
2022/01/23 06:20:24;;;;;;;16.17;11.00;;;7.00;99.90;;;;;;5106637;28;20351;-73
2022/01/23 06:22:51;;;;;;;19.48;11.15;;;7.10;99.90;;;;;;5107574;28;20226;-73
2022/01/23 06:25:20;;;;;;;13.88;10.18;;;7.10;99.90;;;;;;5107561;28;20751;-74
2022/01/23 06:27:47;;;;;;;20.83;11.80;;;7.10;99.90;;;;;;5106863;28;20435;-74
2022/01/23 06:30:14;;;;;;;19.25;13.60;;;7.00;99.90;;;;;;5106697;28;20354;-73
2022/01/23 06:32:41;;;;;;;16.90;11.70;;;7.10;99.90;;;;;;5106459;28;20443;-74
2022/01/23 06:35:08;;;;;;;15.82;11.65;;;7.10;99.90;;;;;;5105953;28;20186;-74
2022/01/23 06:37:35;;;;;;;18.52;13.00;;;7.10;99.90;;;;;;5106501;28;20204;-74
2022/01/23 06:40:02;;;;;;;16.63;11.35;;;7.10;99.90;;;;;;5106091;28;20416;-74
2022/01/23 06:42:30;;;;;;;19.75;11.68;;;7.10;99.90;;;;;;5105825;28;20244;-74
2022/01/23 06:44:58;;;;;;;17.55;9.95;;;7.20;99.90;;;;;;5105123;28;20201;-73
2022/01/23 06:47:25;;;;;;;13.88;8.77;;;7.20;99.90;;;;;;5105999;28;20200;-74
2022/01/23 06:49:51;;;;;;;19.33;11.70;;;7.10;99.90;;;;;;5105728;28;20212;-74
2022/01/23 06:52:19;;;;;;;16.85;9.80;;;7.10;99.90;;;;;;5106796;28;20273;-74
2022/01/23 06:54:46;;;;;;;14.13;10.48;;;7.20;99.90;;;;;;5106857;28;20204;-74
2022/01/23 06:57:13;;;;;;;17.83;11.43;;;7.20;99.90;;;;;;5106601;28;20199;-73
2022/01/23 06:59:41;;;;;;;17.65;9.30;;;7.20;99.90;;;;;;5105900;28;20224;-74
2022/01/23 07:02:09;;;;;;;14.95;9.90;;;7.20;99.90;;;;;;5105968;28;20301;-74
2022/01/23 07:04:36;;;;;;;15.55;8.32;;;7.20;99.90;;;;;;5106136;28;20203;-75
2022/01/23 07:07:03;;;;;;;17.08;7.72;;;7.20;99.90;;;;;;5106460;28;20201;-73
2022/01/23 07:09:30;;;;;;;9.02;6.53;;;7.20;99.90;;;;;;5104996;28;20606;-74
2022/01/23 07:11:57;;;;;;;12.85;7.30;;;7.30;99.90;;;;;;5107060;28;20247;-74
2022/01/23 07:14:23;;;;;;;12.18;7.40;;;7.40;99.90;;;;;;5106443;28;20233;-74
2022/01/23 07:16:52;;;;;;;14.90;8.48;;;7.30;99.90;;;;;;5106361;28;20212;-74
2022/01/23 07:19:19;;;;;;;10.25;7.47;;;7.30;99.90;;;;;;5106423;28;20256;-74
2022/01/23 07:21:46;;;;;;;10.90;7.95;;;7.30;99.90;;;;;;5105738;28;20284;-74
2022/01/23 07:24:13;;;;;;;14.18;7.82;;;7.30;99.90;;;;;;5106323;28;20196;-74
2022/01/23 07:26:41;;;;;;;14.48;7.35;;;7.30;99.90;;;;;;5106245;28;20214;-73
2022/01/23 07:29:08;;;;;;;11.98;7.80;;;7.30;99.90;;;;;;5108562;28;20400;-73
2022/01/23 07:31:56;;;;;;;12.75;7.50;;;7.30;99.90;;;;;;5105624;28;20221;-73
2022/01/23 07:34:25;;;;;;;10.70;6.68;;;7.30;99.90;;;;;;5106146;28;20201;-73
2022/01/23 07:36:53;;;;;;;9.23;7.40;;;7.30;99.90;;;;;;5106157;28;20421;-74
2022/01/23 07:39:20;;;;;;;11.70;8.35;;;7.30;99.90;;;;;;5105891;28;20386;-74
2022/01/23 07:41:46;;;;;;;12.35;7.40;;;7.40;99.90;;;;;;5104650;28;20252;-74
2022/01/23 07:44:13;;;;;;;8.73;6.25;;;7.40;99.90;;;;;;5105756;28;20209;-74
2022/01/23 07:46:40;;;;;;;9.63;6.50;;;7.50;99.90;;;;;;5108105;28;20288;-74
2022/01/23 07:49:07;;;;;;;13.63;6.90;;;7.40;99.90;;;;;;5109376;28;20181;-73
2022/01/23 07:51:36;;;;;;;14.82;9.18;;;7.40;99.90;;;;;;5109194;28;20213;-73
2022/01/23 07:54:04;;;;;;;9.82;6.90;;;7.40;99.90;;;;;;5109972;28;20209;-73
2022/01/23 07:56:31;;;;;;;11.60;7.25;;;7.50;99.90;;;;;;5109815;28;20186;-73
2022/01/23 07:58:58;;;;;;;9.85;6.82;;;7.40;99.90;;;;;;5109280;28;20186;-73
2022/01/23 08:01:25;;;;;;;10.80;6.90;;;7.40;99.90;;;;;;5109219;28;20229;-74
2022/01/23 08:03:54;;;;;;;7.15;5.32;;;7.60;99.90;;;;;;5110098;28;20185;-73
2022/01/23 08:06:28;;;;;;;12.70;6.18;;;8.00;99.90;;;;;;5110625;28;20210;-74
2022/01/23 08:08:57;;;;;;;10.02;6.50;;;8.30;99.90;;;;;;5103254;28;20372;-73
2022/01/23 08:11:24;;;;;;;9.93;5.40;;;8.10;99.90;;;;;;5109804;28;20436;-74
2022/01/23 08:13:51;;;;;;;10.52;5.10;;;8.30;99.90;;;;;;5109978;27;20186;-74
2022/01/23 08:16:18;;;;;;;7.75;4.95;;;8.60;99.90;;;;;;5110035;28;20221;-72
2022/01/23 08:18:45;;;;;;;9.07;5.32;;;8.70;99.90;;;;;;5106955;28;20229;-74
2022/01/23 08:21:12;;;;;;;4.10;3.55;;;8.70;99.90;;;;;;5096105;28;20217;-72
2022/01/23 08:23:39;;;;;;;5.30;3.67;;;8.90;99.90;;;;;;5107646;28;20209;-72
2022/01/23 08:26:07;;;;;;;8.48;5.13;;;9.20;99.90;;;;;;5100682;28;20239;-71
2022/01/23 08:28:34;;;;;;;8.15;4.85;;;9.30;99.90;;;;;;5109149;28;20183;-75
2022/01/23 08:31:01;;;;;;;6.70;4.93;;;9.50;99.90;;;;;;5091750;28;20218;-73
2022/01/23 08:33:28;;;;;;;5.65;3.80;;;9.30;99.90;;;;;;5100133;22;20269;-69
2022/01/23 08:35:57;;;;;;;7.88;4.05;;;9.20;99.90;;;;;;5068939;28;20214;-68
2022/01/23 08:38:24;;;;;;;8.45;3.60;;;9.30;99.90;;;;;;5072632;28;20287;-71
2022/01/23 08:41:49;;;;;;;5.20;4.80;;;9.30;99.90;;;;;;5066061;28;20580;-69
2022/01/23 08:43:48;;;;;;;6.10;4.45;;;9.40;99.90;;;;;;5073839;28;20222;-69
2022/01/23 08:46:15;;;;;;;7.78;4.00;;;9.30;99.90;;;;;;5078305;28;20695;-69
2022/01/23 08:48:42;;;;;;;9.32;3.65;;;9.60;99.90;;;;;;5077935;28;20256;-67
2022/01/23 08:51:09;;;;;;;5.32;3.20;;;9.50;99.90;;;;;;5074755;28;20199;-68
2022/01/23 08:53:36;;;;;;;7.00;3.90;;;9.60;99.90;;;;;;5076124;28;20220;-68
2022/01/23 08:56:03;;;;;;;3.63;3.13;;;9.70;99.90;;;;;;5075197;28;20545;-71
2022/01/23 08:58:30;;;;;;;5.03;3.22;;;9.70;99.90;;;;;;5073183;28;20221;-67
2022/01/23 09:00:59;;;;;;;5.07;3.85;;;9.70;99.90;;;;;;5070296;28;20224;-66
2022/01/23 09:03:26;;;;;;;5.75;4.10;;;9.60;99.90;;;;;;5073672;28;20227;-66
2022/01/23 09:05:53;;;;;;;7.07;4.35;;;9.90;99.90;;;;;;5073329;28;20204;-67
2022/01/23 09:08:21;;;;;;;6.85;3.78;;;9.80;99.90;;;;;;5073787;28;20200;-67
2022/01/23 09:10:54;;;;;;;7.20;4.38;;;9.90;99.90;;;;;;5073755;28;20689;-67
2022/01/23 09:13:51;;;;;;;9.15;5.05;;;9.80;99.90;;;;;;5073321;28;20796;-67
2022/01/23 09:16:19;;;;;;;5.30;4.40;;;9.80;99.90;;;;;;5073609;28;20209;-67
2022/01/23 09:18:47;;;;;;;6.65;4.00;;;9.90;99.90;;;;;;5074470;28;20755;-67
2022/01/23 09:21:14;;;;;;;10.23;5.20;;;9.80;99.90;;;;;;5073453;28;20199;-66
2022/01/23 09:23:41;;;;;;;5.97;3.90;;;9.60;99.90;;;;;;5077843;28;20293;-66
2022/01/23 09:26:10;;;;;;;8.23;4.63;;;9.40;99.90;;;;;;5075565;28;20289;-66
2022/01/23 09:28:39;;;;;;;18.50;4.90;;;9.30;99.90;;;;;;5075257;28;20294;-68
2022/01/23 09:31:06;;;;;;;9.98;5.47;;;9.20;99.90;;;;;;5070339;28;20233;-67
2022/01/23 09:33:35;;;;;;;8.73;4.75;;;9.00;99.90;;;;;;5076396;28;20265;-69
2022/01/23 09:36:02;;;;;;;7.10;4.80;;;9.00;99.90;;;;;;5078268;28;20231;-71
2022/01/23 09:38:28;;;;;;;4.85;4.25;;;9.10;99.90;;;;;;5077040;28;20634;-68
2022/01/23 09:40:58;;;;;;;11.25;6.18;;;9.10;99.90;;;;;;5074082;28;20200;-68
2022/01/23 09:43:28;;;;;;;6.53;5.85;;;9.10;99.90;;;;;;5074932;28;20222;-68
2022/01/23 09:45:55;;;;;;;7.78;4.82;;;9.20;99.90;;;;;;5075504;28;20203;-69
2022/01/23 09:48:24;;;;;;;7.32;3.72;;;9.20;99.90;;;;;;5073710;28;20195;-67
2022/01/23 09:50:53;;;;;;;6.20;3.90;;;9.50;99.90;;;;;;5066185;28;20571;-70
2022/01/23 09:53:22;;;;;;;8.23;4.45;;;9.60;99.90;;;;;;5070805;28;20233;-71
2022/01/23 09:55:53;;;;;;;8.02;3.75;;;9.50;99.90;;;;;;5073107;28;20507;-70
2022/01/23 09:58:20;;;;;;;5.32;4.30;;;9.50;99.90;;;;;;5072600;28;20211;-65
2022/01/23 10:00:47;;;;;;;6.25;4.55;;;9.70;99.90;;;;;;5066644;28;20203;-70
2022/01/23 10:03:19;;;;;;;8.00;4.50;;;9.80;99.90;;;;;;5072608;28;20238;-68
2022/01/23 10:05:48;;;;;;;7.78;3.42;;;9.90;99.90;;;;;;5055718;28;20207;-68
2022/01/23 10:08:16;;;;;;;4.95;3.70;;;9.80;99.90;;;;;;5070433;28;20245;-70
2022/01/23 10:10:50;;;;;;;7.35;3.60;;;9.60;99.90;;;;;;5071608;28;20203;-69
2022/01/23 10:13:18;;;;;;;9.82;4.25;;;9.50;99.90;;;;;;5071779;28;20296;-65
2022/01/23 10:15:45;;;;;;;5.90;4.95;;;9.30;99.90;;;;;;5070840;28;20207;-66
2022/01/23 10:18:11;;;;;;;5.22;3.92;;;9.10;99.90;;;;;;5071618;28;20222;-65
2022/01/23 10:20:38;;;;;;;5.43;3.75;;;9.00;99.90;;;;;;5070855;28;20209;-69
2022/01/23 10:41:05;;;;;;;5.40;4.18;;;9.20;99.90;;;;;;5052205;28;20306;-86
2022/01/23 10:46:46;;;;;;;4.20;3.10;;;9.20;99.90;;;;;;5093802;28;20242;-85
2022/01/23 10:49:15;;;;;;;6.93;3.40;;;9.20;99.90;;;;;;5084787;28;20475;-84
2022/01/23 10:51:43;;;;;;;4.63;3.60;;;9.30;99.90;;;;;;5085213;28;20241;-84
2022/01/23 10:54:17;;;;;;;9.18;5.07;;;9.30;99.90;;;;;;5088511;28;20234;-86
2022/01/23 10:57:13;;;;;;;5.65;3.75;;;9.40;99.90;;;;;;5092147;28;20199;-85
2022/01/23 10:59:47;;;;;;;4.45;3.20;;;9.40;99.90;;;;;;5032310;28;20237;-84
2022/01/23 11:02:22;;;;;;;7.25;5.00;;;9.50;99.90;;;;;;5092472;28;20211;-85
2022/01/23 11:05:01;;;;;;;7.47;3.40;;;9.50;99.90;;;;;;5091610;28;20194;-85
2022/01/23 11:07:29;;;;;;;4.68;3.65;;;9.50;99.90;;;;;;5092685;28;20203;-85
2022/01/23 11:10:02;;;;;;;9.73;5.20;;;9.50;99.90;;;;;;5084646;28;20180;-86
2022/01/23 11:18:23;;;;;;;6.50;4.55;;;9.50;99.90;;;;;;5091535;28;20201;-84
2022/01/23 11:20:51;;;;;;;6.63;4.70;;;9.50;99.90;;;;;;5092779;28;20202;-85
2022/01/23 11:23:21;;;;;;;4.10;3.50;;;9.50;99.90;;;;;;5094874;28;20230;-87
2022/01/23 11:26:08;;;;;;;8.35;4.28;;;9.50;99.90;;;;;;5089246;28;20234;-86
2022/01/23 11:28:44;;;;;;;8.18;3.70;;;9.50;99.90;;;;;;5097639;28;20203;-85
2022/01/23 11:31:13;;;;;;;4.82;3.47;;;9.60;99.90;;;;;;5075672;28;20201;-86
2022/01/23 11:33:41;;;;;;;9.00;3.75;;;9.60;99.90;;;;;;5074700;28;20274;-86
2022/01/23 11:36:08;;;;;;;5.65;4.22;;;9.50;99.90;;;;;;5076173;28;20199;-85
2022/01/23 11:38:37;;;;;;;5.00;3.47;;;9.60;99.90;;;;;;5076219;28;20226;-85
2022/01/23 11:55:07;;;;;;;5.18;3.55;;;9.90;99.90;;;;;;5073183;28;20207;-85
2022/01/23 11:57:43;;;;;;;4.72;3.30;;;9.90;99.90;;;;;;5079222;28;20214;-86
2022/01/23 12:00:21;;;;;;;6.00;4.18;;;10.00;99.90;;;;;;5071862;28;20193;-84
2022/01/23 12:03:10;;;;;;;5.30;3.10;;;10.10;99.90;;;;;;5071730;28;20219;-85
2022/01/23 12:05:39;;;;;;;4.00;3.47;;;10.00;99.90;;;;;;5065545;28;20196;-84
2022/01/23 12:08:19;;;;;;;3.78;3.28;;;10.00;99.90;;;;;;5078476;28;20259;-85
2022/01/23 12:11:24;;;;;;;5.07;3.65;;;10.10;99.90;;;;;;5074173;28;20187;-85
2022/01/23 12:17:11;;;;;;;5.72;3.97;;;9.90;99.90;;;;;;5066291;28;20186;-84
2022/01/23 12:19:47;;;;;;;3.75;3.35;;;9.90;99.90;;;;;;5071337;28;20219;-84
2022/01/23 12:22:36;;;;;;;4.57;3.22;;;9.90;99.90;;;;;;5078263;28;20207;-85
2022/01/23 12:25:22;;;;;;;5.13;3.30;;;9.80;99.90;;;;;;5078373;28;20219;-83
2022/01/23 12:28:09;;;;;;;6.15;3.55;;;9.80;99.90;;;;;;5079095;28;20184;-85
2022/01/23 12:30:37;;;;;;;6.65;4.50;;;9.80;99.90;;;;;;5079298;28;20234;-85
2022/01/23 12:33:28;;;;;;;5.18;2.97;;;9.80;99.90;;;;;;5077252;28;20228;-84
2022/01/23 12:35:58;;;;;;;5.53;2.80;;;9.80;99.90;;;;;;5072341;28;20247;-85
2022/01/23 12:38:31;;;;;;;4.10;2.83;;;9.90;99.90;;;;;;5064129;28;20257;-85
2022/01/23 12:41:21;;;;;;;3.53;3.10;;;9.80;99.90;;;;;;5076945;28;20180;-84
2022/01/23 12:43:48;;;;;;;5.65;3.50;;;9.90;99.90;;;;;;5074316;28;20199;-85
2022/01/23 12:46:25;;;;;;;6.75;3.22;;;9.90;99.90;;;;;;5078282;28;20200;-85
2022/01/23 12:48:54;;;;;;;5.55;3.53;;;9.90;99.90;;;;;;5073269;28;20177;-85
2022/01/23 12:51:46;;;;;;;5.15;3.60;;;10.00;99.90;;;;;;5077469;28;20184;-84
2022/01/23 12:54:32;;;;;;;5.97;2.80;;;10.00;99.90;;;;;;5058704;28;20242;-85
2022/01/23 12:57:12;;;;;;;4.03;3.30;;;10.10;99.90;;;;;;5077426;28;20185;-85
2022/01/23 12:59:42;;;;;;;4.85;3.17;;;10.10;99.90;;;;;;5071920;28;20234;-85
2022/01/23 13:02:14;;;;;;;3.67;2.83;;;10.10;99.90;;;;;;5070332;28;20201;-85
2022/01/23 13:04:46;;;;;;;4.20;2.72;;;10.00;99.90;;;;;;5078359;28;20188;-84
2022/01/23 13:07:39;;;;;;;3.72;2.65;;;10.00;99.90;;;;;;5078942;28;20184;-84
2022/01/23 13:10:21;;;;;;;4.30;3.25;;;10.00;99.90;;;;;;5077527;28;20216;-84
2022/01/23 13:13:07;;;;;;;7.47;2.80;;;9.90;99.90;;;;;;5070851;28;20243;-84
2022/01/23 13:16:00;;;;;;;4.07;3.10;;;9.90;99.90;;;;;;5078127;28;20204;-86
2022/01/23 13:18:48;;;;;;;4.55;2.60;;;9.90;99.90;;;;;;5077937;28;20180;-87
2022/01/23 13:28:52;;;;;;;9.48;2.67;;;10.00;99.90;;;;;;5076349;28;20277;-87
2022/01/23 13:31:07;;;;;;;4.13;2.78;;;10.00;99.90;;;;;;5072247;28;20202;-85
2022/01/23 13:33:34;;;;;;;4.25;2.75;;;9.90;99.90;;;;;;5056073;28;20229;-86
2022/01/23 13:36:03;;;;;;;4.55;3.15;;;10.00;99.90;;;;;;5073650;28;20695;-86
2022/01/23 13:38:34;;;;;;;2.70;2.50;;;10.10;99.90;;;;;;5053098;28;20300;-87
2022/01/23 13:41:10;;;;;;;7.70;2.88;;;9.90;99.90;;;;;;5048936;28;20190;-86
2022/01/23 13:52:26;;;;;;;4.25;3.30;;;9.80;99.90;;;;;;5050150;28;20200;-87
2022/01/23 13:58:08;;;;;;;4.80;3.45;;;9.80;99.90;;;;;;5065893;28;20215;-84
2022/01/23 14:00:37;;;;;;;23.30;4.93;;;9.70;99.90;;;;;;5057978;28;20200;-87
2022/01/23 14:03:05;;;;;;;16.40;3.22;;;9.70;99.90;;;;;;5074529;28;20215;-86
2022/01/23 14:05:36;;;;;;;7.55;3.55;;;9.70;99.90;;;;;;5075504;28;20199;-87
2022/01/23 14:08:05;;;;;;;8.43;3.28;;;9.70;99.90;;;;;;5074460;28;20200;-88
2022/01/23 14:10:39;;;;;;;16.67;3.50;;;9.60;99.90;;;;;;5074765;28;20210;-86
2022/01/23 14:13:11;;;;;;;5.82;4.07;;;9.70;99.90;;;;;;5074851;28;20236;-86
2022/01/23 14:15:50;;;;;;;6.70;4.07;;;9.70;99.90;;;;;;5076677;28;20242;-87
2022/01/23 14:18:26;;;;;;;5.57;3.97;;;9.70;99.90;;;;;;5075477;28;20192;-87
2022/01/23 14:21:09;;;;;;;5.30;4.20;;;9.60;99.90;;;;;;5073491;28;20207;-86
2022/01/23 14:23:37;;;;;;;8.23;3.33;;;9.60;99.90;;;;;;5071729;28;20231;-86
2022/01/23 14:26:07;;;;;;;9.05;5.30;;;9.50;99.90;;;;;;5071439;28;20203;-88
2022/01/23 14:28:52;;;;;;;4.90;4.45;;;9.40;99.90;;;;;;5072384;28;20255;-86
2022/01/23 14:31:41;;;;;;;5.80;5.22;;;9.30;99.90;;;;;;5057160;28;20294;-86
2022/01/23 14:34:28;;;;;;;6.25;4.88;;;9.30;99.90;;;;;;5072864;28;20215;-87
2022/01/23 14:36:58;;;;;;;4.75;4.25;;;9.40;99.90;;;;;;5073685;28;20438;-86
2022/01/23 14:39:31;;;;;;;5.80;4.13;;;9.50;99.90;;;;;;5072217;28;20195;-87
2022/01/23 14:42:15;;;;;;;7.53;4.25;;;9.50;99.90;;;;;;5073165;28;20216;-86
2022/01/23 14:44:45;;;;;;;8.40;4.85;;;9.30;99.90;;;;;;5071102;28;20431;-86
2022/01/23 14:47:14;;;;;;;5.55;4.40;;;9.40;99.90;;;;;;5078716;22;20239;-74
2022/01/23 14:49:45;;;;;;;5.53;4.07;;;9.40;99.90;;;;;;5052141;28;20294;-74
2022/01/23 14:52:14;;;;;;;5.20;3.80;;;9.40;99.90;;;;;;5046337;28;20245;-73
2022/01/23 14:54:42;;;;;;;6.10;4.10;;;9.40;99.90;;;;;;5053225;28;20280;-72
2022/01/23 14:57:15;;;;;;;5.95;4.15;;;9.50;99.90;;;;;;5072236;28;20199;-75
2022/01/23 14:59:44;;;;;;;5.75;4.32;;;9.50;99.90;;;;;;5055352;28;20213;-72
2022/01/23 15:02:12;;;;;;;8.35;3.60;;;9.50;99.90;;;;;;5062972;28;20250;-73
2022/01/23 15:04:42;;;;;;;6.93;5.07;;;9.50;99.90;;;;;;5060304;28;20213;-73
2022/01/23 15:07:14;;;;;;;8.95;5.25;;;9.50;99.90;;;;;;5059749;28;20233;-73
2022/01/23 15:09:42;;;;;;;4.30;3.67;;;9.50;99.90;;;;;;5061238;28;20224;-73
2022/01/23 15:12:10;;;;;;;6.70;5.97;;;9.50;99.90;;;;;;5058896;28;20223;-71
2022/01/23 15:14:38;;;;;;;4.47;4.03;;;9.40;99.90;;;;;;5052750;28;20279;-72
2022/01/23 15:17:06;;;;;;;5.88;4.18;;;9.50;99.90;;;;;;5042112;28;20218;-72
2022/01/23 15:19:34;;;;;;;6.78;4.20;;;9.50;99.90;;;;;;5039176;28;20267;-69
2022/01/23 15:22:02;;;;;;;7.80;5.47;;;9.40;99.90;;;;;;5047358;28;20514;-70
2022/01/23 15:24:29;;;;;;;8.95;4.35;;;9.40;99.90;;;;;;5042038;28;20205;-72
2022/01/23 15:26:57;;;;;;;6.70;4.53;;;9.40;99.90;;;;;;5043827;28;20197;-73
2022/01/23 15:29:25;;;;;;;7.47;5.25;;;9.40;99.90;;;;;;5046974;28;20253;-73
2022/01/23 15:31:52;;;;;;;5.72;4.38;;;9.40;99.90;;;;;;5056715;28;20219;-73
2022/01/23 15:34:19;;;;;;;7.70;4.50;;;9.50;99.90;;;;;;5052159;28;20228;-71
2022/01/23 15:36:47;;;;;;;5.65;4.85;;;9.40;99.90;;;;;;5046395;28;20192;-73
2022/01/23 15:39:16;;;;;;;4.63;4.13;;;9.40;99.90;;;;;;5045320;28;20218;-75
2022/01/23 15:41:43;;;;;;;5.47;4.78;;;9.40;99.90;;;;;;5047702;28;20302;-73
2022/01/23 15:44:10;;;;;;;6.07;4.25;;;9.40;99.90;;;;;;5047326;28;20199;-72
2022/01/23 15:46:37;;;;;;;6.20;4.78;;;9.30;99.90;;;;;;5058390;28;20214;-73
2022/01/23 15:49:05;;;;;;;7.38;4.30;;;9.30;99.90;;;;;;5061742;28;20212;-72
2022/01/23 15:51:32;;;;;;;7.97;4.90;;;9.40;99.90;;;;;;5054529;28;20297;-71
2022/01/23 15:54:00;;;;;;;4.25;3.85;;;9.40;99.90;;;;;;5057168;28;20256;-72
2022/01/23 15:56:28;;;;;;;5.30;4.05;;;9.30;99.90;;;;;;5055067;28;20557;-74
2022/01/23 15:58:56;;;;;;;7.03;4.50;;;9.30;99.90;;;;;;5056755;28;20246;-70
2022/01/23 16:01:24;;;;;;;13.70;3.80;;;9.30;99.90;;;;;;5063179;28;20220;-76
2022/01/23 16:03:51;;;;;;;5.90;4.50;;;9.30;99.90;;;;;;5055591;28;20469;-73
2022/01/23 16:06:18;;;;;;;4.70;3.20;;;9.30;99.90;;;;;;5061747;28;20200;-73
2022/01/23 16:08:45;;;;;;;5.47;2.85;;;9.20;99.90;;;;;;5051556;28;20206;-74
2022/01/23 16:11:12;;;;;;;5.10;3.60;;;9.20;99.90;;;;;;5066950;28;20233;-70
2022/01/23 16:13:42;;;;;;;6.50;3.45;;;9.20;99.90;;;;;;5050734;28;20257;-72
2022/01/23 16:16:09;;;;;;;5.07;4.05;;;9.10;99.90;;;;;;5058412;28;20287;-71
2022/01/23 16:18:38;;;;;;;4.93;3.13;;;9.10;99.90;;;;;;5060399;28;21007;-73